createdAt,value
2018-08-28T00:00:05.152Z,4.70
2018-08-28T00:01:05.184Z,7.40
2018-08-28T00:02:05.214Z,4.20
2018-08-28T00:03:05.249Z,6.50
2018-08-28T00:04:05.285Z,6.10
2018-08-28T00:05:05.318Z,3.80
2018-08-28T00:06:05.352Z,5.70
2018-08-28T00:07:05.385Z,8.90
2018-08-28T00:08:05.418Z,4.50
2018-08-28T00:09:05.452Z,5.60
2018-08-28T00:10:05.483Z,5.70
2018-08-28T00:11:05.520Z,5.90
2018-08-28T00:12:05.552Z,5.30
2018-08-28T00:13:05.587Z,8.90
2018-08-28T00:14:05.620Z,4.40
2018-08-28T00:15:05.653Z,3.90
2018-08-28T00:16:05.685Z,3.10
2018-08-28T00:17:05.812Z,5.60
2018-08-28T00:18:05.752Z,3.70
2018-08-28T00:19:05.786Z,3.70
2018-08-28T00:20:05.821Z,3.10
2018-08-28T00:21:05.856Z,4.10
2018-08-28T00:22:05.886Z,2.80
2018-08-28T00:23:05.921Z,6.40
2018-08-28T00:24:05.954Z,3.00
2018-08-28T00:25:05.988Z,2.90
2018-08-28T00:26:06.021Z,2.40
2018-08-28T00:27:06.055Z,2.40
2018-08-28T00:28:06.089Z,4.30
2018-08-28T00:29:06.122Z,4.60
2018-08-28T00:30:06.155Z,5.90
2018-08-28T00:31:06.188Z,3.60
2018-08-28T00:32:06.226Z,7.70
2018-08-28T00:33:06.255Z,2.40
2018-08-28T00:34:06.288Z,4.00
2018-08-28T00:35:06.322Z,2.30
2018-08-28T00:36:06.355Z,3.20
2018-08-28T00:37:06.391Z,2.70
2018-08-28T00:38:06.424Z,2.40
2018-08-28T00:39:06.455Z,3.20
2018-08-28T00:40:06.491Z,4.50
2018-08-28T00:41:06.526Z,3.80
2018-08-28T00:42:06.557Z,2.50
2018-08-28T00:43:06.590Z,3.20
2018-08-28T00:44:06.622Z,4.00
2018-08-28T00:45:06.658Z,4.20
2018-08-28T00:46:06.694Z,4.10
2018-08-28T00:47:06.723Z,2.90
2018-08-28T00:48:06.758Z,3.80
2018-08-28T00:49:06.789Z,3.10
2018-08-28T00:50:06.827Z,2.50
2018-08-28T00:51:06.860Z,3.00
2018-08-28T00:52:06.891Z,3.30
2018-08-28T00:53:06.926Z,2.90
2018-08-28T00:54:06.957Z,3.60
2018-08-28T00:55:06.994Z,2.90
2018-08-28T00:56:07.024Z,2.90
2018-08-28T00:57:07.057Z,4.80
2018-08-28T00:58:07.091Z,4.50
2018-08-28T00:59:07.124Z,3.00
2018-08-28T01:00:07.157Z,5.40
2018-08-28T01:01:07.196Z,3.80
2018-08-28T01:02:07.228Z,2.80
2018-08-28T01:03:07.256Z,3.00
2018-08-28T01:04:07.292Z,4.50
2018-08-28T01:05:07.324Z,9.70
2018-08-28T01:06:07.357Z,2.80
2018-08-28T01:07:07.392Z,3.20
2018-08-28T01:08:07.424Z,3.70
2018-08-28T01:09:07.462Z,2.80
2018-08-28T01:10:07.491Z,2.80
2018-08-28T01:11:07.525Z,5.10
2018-08-28T01:12:07.560Z,4.10
2018-08-28T01:13:07.594Z,6.50
2018-08-28T01:14:07.628Z,3.50
2018-08-28T01:15:07.659Z,3.10
2018-08-28T01:16:07.691Z,3.40
2018-08-28T01:17:07.725Z,4.30
2018-08-28T01:18:07.759Z,2.50
2018-08-28T01:19:07.792Z,3.70
2018-08-28T01:20:07.825Z,5.60
2018-08-28T01:21:07.859Z,3.10
2018-08-28T01:22:07.891Z,4.00
2018-08-28T01:23:07.925Z,3.50
2018-08-28T01:24:07.961Z,2.40
2018-08-28T01:25:07.994Z,5.40
2018-08-28T01:26:08.024Z,3.20
2018-08-28T01:27:08.057Z,3.20
2018-08-28T01:28:08.091Z,3.90
2018-08-28T01:29:08.125Z,3.80
2018-08-28T01:30:08.158Z,4.90
2018-08-28T01:31:08.191Z,3.20
2018-08-28T01:32:08.227Z,2.40
2018-08-28T01:33:08.260Z,3.80
2018-08-28T01:34:08.291Z,2.50
2018-08-28T01:35:08.324Z,2.30
2018-08-28T01:36:08.359Z,4.70
2018-08-28T01:37:08.449Z,3.10
2018-08-28T01:38:08.423Z,2.90
2018-08-28T01:39:08.459Z,3.00
2018-08-28T01:40:08.492Z,3.10
2018-08-28T01:41:08.525Z,5.70
2018-08-28T01:42:08.558Z,4.80
2018-08-28T01:43:08.591Z,3.10
2018-08-28T01:44:08.624Z,2.60
2018-08-28T01:45:08.659Z,4.40
2018-08-28T01:46:08.690Z,4.70
2018-08-28T01:47:08.724Z,3.40
2018-08-28T01:48:08.758Z,4.50
2018-08-28T01:49:08.789Z,4.70
2018-08-28T01:50:08.823Z,4.10
2018-08-28T01:51:08.865Z,3.00
2018-08-28T01:52:08.891Z,3.90
2018-08-28T01:53:08.925Z,3.80
2018-08-28T01:54:08.955Z,4.70
2018-08-28T01:55:08.989Z,3.00
2018-08-28T01:56:09.023Z,4.50
2018-08-28T01:57:09.058Z,3.00
2018-08-28T01:58:09.089Z,3.60
2018-08-28T01:59:09.123Z,2.90
2018-08-28T02:00:09.156Z,4.70
2018-08-28T02:01:09.190Z,5.70
2018-08-28T02:02:09.223Z,3.50
2018-08-28T02:03:09.259Z,4.50
2018-08-28T02:04:09.290Z,4.10
2018-08-28T02:05:09.323Z,3.90
2018-08-28T02:06:09.355Z,3.60
2018-08-28T02:07:09.388Z,5.00
2018-08-28T02:08:09.422Z,4.10
2018-08-28T02:09:09.455Z,3.70
2018-08-28T02:10:09.487Z,4.10
2018-08-28T02:11:09.520Z,4.30
2018-08-28T02:12:09.556Z,3.60
2018-08-28T02:13:09.603Z,2.70
2018-08-28T02:14:09.621Z,3.70
2018-08-28T02:15:09.655Z,4.60
2018-08-28T02:16:09.687Z,4.50
2018-08-28T02:17:09.725Z,7.10
2018-08-28T02:18:09.753Z,3.80
2018-08-28T02:19:09.787Z,3.60
2018-08-28T02:20:09.822Z,3.50
2018-08-28T02:21:09.855Z,3.20
2018-08-28T02:22:09.887Z,4.00
2018-08-28T02:23:09.919Z,3.30
2018-08-28T02:24:09.954Z,5.40
2018-08-28T02:25:09.985Z,4.80
2018-08-28T02:26:10.020Z,3.70
2018-08-28T02:27:10.052Z,3.60
2018-08-28T02:28:10.091Z,3.60
2018-08-28T02:29:10.140Z,3.90
2018-08-28T02:30:10.152Z,4.50
2018-08-28T02:31:10.189Z,3.60
2018-08-28T02:32:10.224Z,5.20
2018-08-28T02:33:10.253Z,3.50
2018-08-28T02:34:10.285Z,3.80
2018-08-28T02:35:10.322Z,3.10
2018-08-28T02:36:10.356Z,3.20
2018-08-28T02:37:10.387Z,3.80
2018-08-28T02:38:10.429Z,4.20
2018-08-28T02:39:10.452Z,4.20
2018-08-28T02:40:10.486Z,4.40
2018-08-28T02:41:10.519Z,3.60
2018-08-28T02:42:10.559Z,3.70
2018-08-28T02:43:10.584Z,6.00
2018-08-28T02:44:10.617Z,4.80
2018-08-28T02:45:10.651Z,3.60
2018-08-28T02:46:10.684Z,5.20
2018-08-28T02:47:10.717Z,3.70
2018-08-28T02:48:10.752Z,4.00
2018-08-28T02:49:10.786Z,4.20
2018-08-28T02:50:10.816Z,3.70
2018-08-28T02:51:10.850Z,5.10
2018-08-28T02:52:10.883Z,4.70
2018-08-28T02:53:10.918Z,3.30
2018-08-28T02:54:10.950Z,3.80
2018-08-28T02:55:10.981Z,5.10
2018-08-28T02:56:11.051Z,4.00
2018-08-28T02:57:11.049Z,3.80
2018-08-28T02:58:11.083Z,4.00
2018-08-28T02:59:11.115Z,6.40
2018-08-28T03:00:11.149Z,4.10
2018-08-28T03:01:11.180Z,3.90
2018-08-28T03:02:11.213Z,3.90
2018-08-28T03:03:11.261Z,4.10
2018-08-28T03:04:11.482Z,4.10
2018-08-28T03:05:11.315Z,4.00
2018-08-28T03:06:11.347Z,4.00
2018-08-28T03:07:11.378Z,5.00
2018-08-28T03:08:11.413Z,3.30
2018-08-28T03:09:11.446Z,3.80
2018-08-28T03:10:11.478Z,4.70
2018-08-28T03:11:11.572Z,3.70
2018-08-28T03:12:11.546Z,3.80
2018-08-28T03:13:11.587Z,3.90
2018-08-28T03:14:11.611Z,4.10
2018-08-28T03:15:11.643Z,6.30
2018-08-28T03:16:11.679Z,7.10
2018-08-28T03:17:11.711Z,3.90
2018-08-28T03:18:11.744Z,4.30
2018-08-28T03:19:11.776Z,4.20
2018-08-28T03:20:11.813Z,4.00
2018-08-28T03:21:11.842Z,4.80
2018-08-28T03:22:11.881Z,4.50
2018-08-28T03:23:11.908Z,5.90
2018-08-28T03:24:11.940Z,4.90
2018-08-28T03:25:11.974Z,4.70
2018-08-28T03:26:12.007Z,6.80
2018-08-28T03:27:12.040Z,4.40
2018-08-28T03:28:12.073Z,7.90
2018-08-28T03:29:12.193Z,4.80
2018-08-28T03:30:12.140Z,5.80
2018-08-28T03:31:12.172Z,6.60
2018-08-28T03:32:12.206Z,3.70
2018-08-28T03:33:12.241Z,4.90
2018-08-28T03:34:12.270Z,4.00
2018-08-28T03:35:12.327Z,4.70
2018-08-28T03:36:12.337Z,5.70
2018-08-28T03:37:12.374Z,6.90
2018-08-28T03:38:12.402Z,5.50
2018-08-28T03:39:12.435Z,7.60
2018-08-28T03:40:12.472Z,9.40
2018-08-28T03:41:12.501Z,10.30
2018-08-28T03:42:12.740Z,9.80
2018-08-28T03:43:12.567Z,8.80
2018-08-28T03:44:12.600Z,7.40
2018-08-28T03:45:12.637Z,7.10
2018-08-28T03:46:12.666Z,6.00
2018-08-28T03:47:12.699Z,7.00
2018-08-28T03:48:12.733Z,6.20
2018-08-28T03:49:12.766Z,4.00
2018-08-28T03:50:12.798Z,4.60
2018-08-28T03:51:12.831Z,3.50
2018-08-28T03:52:12.864Z,4.40
2018-08-28T03:53:12.902Z,4.90
2018-08-28T03:54:12.929Z,5.60
2018-08-28T03:55:12.962Z,4.40
2018-08-28T03:56:12.996Z,5.00
2018-08-28T03:57:13.029Z,6.80
2018-08-28T03:58:13.061Z,6.70
2018-08-28T03:59:13.096Z,7.60
2018-08-28T04:00:13.129Z,5.80
2018-08-28T04:01:13.160Z,5.80
2018-08-28T04:02:13.193Z,6.90
2018-08-28T04:03:13.226Z,8.30
2018-08-28T04:04:13.259Z,6.80
2018-08-28T04:05:13.294Z,9.90
2018-08-28T04:06:13.324Z,5.50
2018-08-28T04:07:13.357Z,6.00
2018-08-28T04:08:13.390Z,7.00
2018-08-28T04:09:13.425Z,4.90
2018-08-28T04:10:13.455Z,6.00
2018-08-28T04:11:13.489Z,3.70
2018-08-28T04:12:13.527Z,3.80
2018-08-28T04:13:13.556Z,3.70
2018-08-28T04:14:13.593Z,4.90
2018-08-28T04:15:13.620Z,4.30
2018-08-28T04:16:13.656Z,4.30
2018-08-28T04:17:13.768Z,3.50
2018-08-28T04:18:13.717Z,3.90
2018-08-28T04:19:13.752Z,4.70
2018-08-28T04:20:13.786Z,6.70
2018-08-28T04:21:13.818Z,5.30
2018-08-28T04:22:13.856Z,4.10
2018-08-28T04:23:13.883Z,4.10
2018-08-28T04:24:13.915Z,3.90
2018-08-28T04:25:13.949Z,3.90
2018-08-28T04:26:13.981Z,3.90
2018-08-28T04:27:14.013Z,5.20
2018-08-28T04:28:14.047Z,4.60
2018-08-28T04:29:14.080Z,4.70
2018-08-28T04:30:14.111Z,4.30
2018-08-28T04:31:14.144Z,4.30
2018-08-28T04:32:14.178Z,4.40
2018-08-28T04:33:14.210Z,6.30
2018-08-28T04:34:14.244Z,6.50
2018-08-28T04:35:14.275Z,5.30
2018-08-28T04:36:14.310Z,5.20
2018-08-28T04:37:14.340Z,4.70
2018-08-28T04:38:14.372Z,3.90
2018-08-28T04:39:14.405Z,3.90
2018-08-28T04:40:14.438Z,3.50
2018-08-28T04:41:14.473Z,3.40
2018-08-28T04:42:14.502Z,4.00
2018-08-28T04:43:14.535Z,3.10
2018-08-28T04:44:14.569Z,4.70
2018-08-28T04:45:14.601Z,5.50
2018-08-28T04:46:14.633Z,7.90
2018-08-28T04:47:14.667Z,6.60
2018-08-28T04:48:14.699Z,4.40
2018-08-28T04:49:14.731Z,4.10
2018-08-28T04:50:14.764Z,4.50
2018-08-28T04:51:14.797Z,11.20
2018-08-28T04:52:14.829Z,4.40
2018-08-28T04:53:14.863Z,4.10
2018-08-28T04:54:14.937Z,3.90
2018-08-28T04:55:14.928Z,4.90
2018-08-28T04:56:14.962Z,4.90
2018-08-28T04:57:14.994Z,5.80
2018-08-28T04:58:15.026Z,5.70
2018-08-28T04:59:15.059Z,5.00
2018-08-28T05:00:15.091Z,4.90
2018-08-28T05:01:15.124Z,5.00
2018-08-28T05:02:15.157Z,5.20
2018-08-28T05:03:15.190Z,5.30
2018-08-28T05:04:15.221Z,5.50
2018-08-28T05:05:15.255Z,5.50
2018-08-28T05:06:15.286Z,8.40
2018-08-28T05:07:15.320Z,5.60
2018-08-28T05:08:15.353Z,7.80
2018-08-28T05:09:15.385Z,4.30
2018-08-28T05:10:15.416Z,5.20
2018-08-28T05:11:15.450Z,4.80
2018-08-28T05:12:15.483Z,6.10
2018-08-28T05:13:15.516Z,4.60
2018-08-28T05:14:15.549Z,5.50
2018-08-28T05:15:15.582Z,4.70
2018-08-28T05:16:15.614Z,4.60
2018-08-28T05:17:15.647Z,4.70
2018-08-28T05:18:15.680Z,4.70
2018-08-28T05:19:15.763Z,4.50
2018-08-28T05:20:15.746Z,6.70
2018-08-28T05:21:15.778Z,4.70
2018-08-28T05:22:15.811Z,4.90
2018-08-28T05:23:15.845Z,5.60
2018-08-28T05:24:15.877Z,5.00
2018-08-28T05:25:15.910Z,5.10
2018-08-28T05:26:15.942Z,6.90
2018-08-28T05:27:15.976Z,5.40
2018-08-28T05:28:16.010Z,5.00
2018-08-28T05:29:16.042Z,8.80
2018-08-28T05:30:16.076Z,5.30
2018-08-28T05:31:16.108Z,4.80
2018-08-28T05:32:16.140Z,6.50
2018-08-28T05:33:16.173Z,5.60
2018-08-28T05:34:16.205Z,4.40
2018-08-28T05:35:16.239Z,5.50
2018-08-28T05:36:16.272Z,4.90
2018-08-28T05:37:16.304Z,5.70
2018-08-28T05:38:16.353Z,5.20
2018-08-28T05:39:16.371Z,4.80
2018-08-28T05:40:16.404Z,5.30
2018-08-28T05:41:16.440Z,5.00
2018-08-28T05:42:16.470Z,5.20
2018-08-28T05:43:16.504Z,6.60
2018-08-28T05:44:16.538Z,5.30
2018-08-28T05:45:16.571Z,5.40
2018-08-28T05:46:16.604Z,8.90
2018-08-28T05:47:16.636Z,5.40
2018-08-28T05:48:16.670Z,5.40
2018-08-28T05:49:16.704Z,7.90
2018-08-28T05:50:16.736Z,4.80
2018-08-28T05:51:16.769Z,10.20
2018-08-28T05:52:16.804Z,5.70
2018-08-28T05:53:16.836Z,10.00
2018-08-28T05:54:16.870Z,4.80
2018-08-28T05:55:16.904Z,4.80
2018-08-28T05:56:17.005Z,4.90
2018-08-28T05:57:16.970Z,4.40
2018-08-28T05:58:17.003Z,4.60
2018-08-28T05:59:17.037Z,5.10
2018-08-28T06:00:17.071Z,5.40
2018-08-28T06:01:17.108Z,5.20
2018-08-28T06:02:17.141Z,5.60
2018-08-28T06:03:17.230Z,7.30
2018-08-28T06:04:17.205Z,4.80
2018-08-28T06:05:17.239Z,6.60
2018-08-28T06:06:17.271Z,11.00
2018-08-28T06:07:17.305Z,6.10
2018-08-28T06:08:17.342Z,5.90
2018-08-28T06:09:17.373Z,6.40
2018-08-28T06:10:17.406Z,5.80
2018-08-28T06:11:17.447Z,5.90
2018-08-28T06:12:17.520Z,5.50
2018-08-28T06:13:17.508Z,6.40
2018-08-28T06:14:17.541Z,5.90
2018-08-28T06:15:17.580Z,5.60
2018-08-28T06:16:17.609Z,5.60
2018-08-28T06:17:17.643Z,5.50
2018-08-28T06:18:17.677Z,5.40
2018-08-28T06:19:17.710Z,5.10
2018-08-28T06:20:17.747Z,6.70
2018-08-28T06:21:17.779Z,6.00
2018-08-28T06:22:17.811Z,5.40
2018-08-28T06:23:17.847Z,5.30
2018-08-28T06:24:17.881Z,9.30
2018-08-28T06:25:17.915Z,5.30
2018-08-28T06:26:17.969Z,7.60
2018-08-28T06:27:17.982Z,6.70
2018-08-28T06:28:18.016Z,5.50
2018-08-28T06:29:18.050Z,5.60
2018-08-28T06:30:18.085Z,5.80
2018-08-28T06:31:18.119Z,5.10
2018-08-28T06:32:18.153Z,6.20
2018-08-28T06:33:18.186Z,6.70
2018-08-28T06:34:18.222Z,7.80
2018-08-28T06:35:18.256Z,5.70
2018-08-28T06:36:18.290Z,6.90
2018-08-28T06:37:18.381Z,9.80
2018-08-28T06:38:18.359Z,5.80
2018-08-28T06:39:18.396Z,5.80
2018-08-28T06:40:18.428Z,5.80
2018-08-28T06:41:18.464Z,5.00
2018-08-28T06:42:18.498Z,5.20
2018-08-28T06:43:18.532Z,6.80
2018-08-28T06:44:18.567Z,5.40
2018-08-28T06:45:18.601Z,5.10
2018-08-28T06:46:18.642Z,7.20
2018-08-28T06:47:18.672Z,5.50
2018-08-28T06:48:18.706Z,5.80
2018-08-28T06:49:18.742Z,5.10
2018-08-28T06:50:18.776Z,5.20
2018-08-28T06:51:18.811Z,5.40
2018-08-28T06:52:18.851Z,5.10
2018-08-28T06:53:18.882Z,10.10
2018-08-28T06:54:18.916Z,5.00
2018-08-28T06:55:18.952Z,5.30
2018-08-28T06:56:18.986Z,7.00
2018-08-28T06:57:19.023Z,10.10
2018-08-28T06:58:19.058Z,6.40
2018-08-28T06:59:19.094Z,5.50
2018-08-28T07:00:19.130Z,7.40
2018-08-28T07:01:19.165Z,5.40
2018-08-28T07:02:19.211Z,5.60
2018-08-28T07:03:19.237Z,5.90
2018-08-28T07:04:19.273Z,5.30
2018-08-28T07:05:19.308Z,5.40
2018-08-28T07:06:19.342Z,5.90
2018-08-28T07:07:19.383Z,6.40
2018-08-28T07:08:19.416Z,6.20
2018-08-28T07:09:19.452Z,6.50
2018-08-28T07:10:19.572Z,5.90
2018-08-28T07:11:19.524Z,5.70
2018-08-28T07:12:19.562Z,6.80
2018-08-28T07:13:19.599Z,6.30
2018-08-28T07:14:19.633Z,5.50
2018-08-28T07:15:19.668Z,6.50
2018-08-28T07:16:19.705Z,7.00
2018-08-28T07:17:19.742Z,6.50
2018-08-28T07:18:19.777Z,6.10
2018-08-28T07:19:19.817Z,5.20
2018-08-28T07:20:19.850Z,5.80
2018-08-28T07:21:19.887Z,5.50
2018-08-28T07:22:19.923Z,5.80
2018-08-28T07:23:19.959Z,4.90
2018-08-28T07:24:19.996Z,5.80
2018-08-28T07:25:20.035Z,7.90
2018-08-28T07:26:20.069Z,6.30
2018-08-28T07:27:20.106Z,6.00
2018-08-28T07:28:20.142Z,6.30
2018-08-28T07:29:20.183Z,5.80
2018-08-28T07:30:20.216Z,5.80
2018-08-28T07:31:20.269Z,5.60
2018-08-28T07:32:20.290Z,6.20
2018-08-28T07:33:20.327Z,6.30
2018-08-28T07:34:20.363Z,5.30
2018-08-28T07:35:20.399Z,5.40
2018-08-28T07:36:20.437Z,5.90
2018-08-28T07:37:20.514Z,6.00
2018-08-28T07:38:20.511Z,6.30
2018-08-28T07:39:20.548Z,6.10
2018-08-28T07:40:20.585Z,8.40
2018-08-28T07:41:20.626Z,7.00
2018-08-28T07:42:20.659Z,6.60
2018-08-28T07:43:20.698Z,6.50
2018-08-28T07:44:20.742Z,6.50
2018-08-28T07:45:20.771Z,6.60
2018-08-28T07:46:20.808Z,7.00
2018-08-28T07:47:20.846Z,6.60
2018-08-28T07:48:20.913Z,6.50
2018-08-28T07:49:20.923Z,6.50
2018-08-28T07:50:20.957Z,7.70
2018-08-28T07:51:20.997Z,7.60
2018-08-28T07:52:21.035Z,7.20
2018-08-28T07:53:21.072Z,8.80
2018-08-28T07:54:21.108Z,7.90
2018-08-28T07:55:21.147Z,7.80
2018-08-28T07:56:21.192Z,7.80
2018-08-28T07:57:21.223Z,7.90
2018-08-28T07:58:21.260Z,7.90
2018-08-28T07:59:21.298Z,7.20
2018-08-28T08:00:21.337Z,10.50
2018-08-28T08:01:21.422Z,7.20
2018-08-28T08:02:21.412Z,7.50
2018-08-28T08:03:21.452Z,11.10
2018-08-28T08:04:21.488Z,7.40
2018-08-28T08:05:21.527Z,6.50
2018-08-28T08:06:21.567Z,6.90
2018-08-28T08:07:21.604Z,6.50
2018-08-28T08:08:21.643Z,8.50
2018-08-28T08:09:21.682Z,6.60
2018-08-28T08:10:21.726Z,6.80
2018-08-28T08:11:21.760Z,6.80
2018-08-28T08:12:21.798Z,6.40
2018-08-28T08:13:21.836Z,9.70
2018-08-28T08:14:21.874Z,8.60
2018-08-28T08:15:21.915Z,6.70
2018-08-28T08:16:21.954Z,7.50
2018-08-28T08:17:21.992Z,5.90
2018-08-28T08:18:22.033Z,6.60
2018-08-28T08:19:22.070Z,7.40
2018-08-28T08:20:22.108Z,5.80
2018-08-28T08:21:22.149Z,6.80
2018-08-28T08:22:22.192Z,7.10
2018-08-28T08:23:22.227Z,6.60
2018-08-28T08:24:22.271Z,6.40
2018-08-28T08:25:22.306Z,6.60
2018-08-28T08:26:22.346Z,6.80
2018-08-28T08:27:22.383Z,7.20
2018-08-28T08:28:22.502Z,6.80
2018-08-28T08:29:22.464Z,6.30
2018-08-28T08:30:22.503Z,6.60
2018-08-28T08:31:22.541Z,7.00
2018-08-28T08:32:22.581Z,7.10
2018-08-28T08:33:22.622Z,6.80
2018-08-28T08:34:22.658Z,7.60
2018-08-28T08:35:22.840Z,8.20
2018-08-28T08:36:22.740Z,8.30
2018-08-28T08:37:22.779Z,7.70
2018-08-28T08:38:22.818Z,6.90
2018-08-28T08:39:22.858Z,7.80
2018-08-28T08:40:22.898Z,8.30
2018-08-28T08:41:22.938Z,6.90
2018-08-28T08:42:22.977Z,8.10
2018-08-28T08:43:23.020Z,10.50
2018-08-28T08:44:23.064Z,9.10
2018-08-28T08:45:23.100Z,8.20
2018-08-28T08:46:23.135Z,9.20
2018-08-28T08:47:23.177Z,8.70
2018-08-28T08:48:23.223Z,8.30
2018-08-28T08:49:23.258Z,8.20
2018-08-28T08:50:23.297Z,8.80
2018-08-28T08:51:23.337Z,7.90
2018-08-28T08:52:23.379Z,8.60
2018-08-28T08:53:23.420Z,7.60
2018-08-28T08:54:23.459Z,7.70
2018-08-28T08:55:23.497Z,8.00
2018-08-28T08:56:23.541Z,7.20
2018-08-28T08:57:23.593Z,7.20
2018-08-28T08:58:23.620Z,8.70
2018-08-28T08:59:23.662Z,8.10
2018-08-28T09:00:23.700Z,8.00
2018-08-28T09:01:23.742Z,8.50
2018-08-28T09:02:23.782Z,8.90
2018-08-28T09:03:23.823Z,7.60
2018-08-28T09:04:23.864Z,10.70
2018-08-28T09:05:23.904Z,7.60
2018-08-28T09:06:23.943Z,8.50
2018-08-28T09:07:23.985Z,8.30
2018-08-28T09:08:24.027Z,8.10
2018-08-28T09:09:24.067Z,8.00
2018-08-28T09:10:24.110Z,9.90
2018-08-28T09:11:24.148Z,8.90
2018-08-28T09:12:24.189Z,8.50
2018-08-28T09:13:24.291Z,11.80
2018-08-28T09:14:24.270Z,8.40
2018-08-28T09:15:24.311Z,7.80
2018-08-28T09:16:24.352Z,10.30
2018-08-28T09:17:24.395Z,9.10
2018-08-28T09:18:24.435Z,8.50
2018-08-28T09:19:24.516Z,8.70
2018-08-28T09:20:24.518Z,9.10
2018-08-28T09:21:24.559Z,8.60
2018-08-28T09:22:24.599Z,9.20
2018-08-28T09:23:24.641Z,8.30
2018-08-28T09:24:24.682Z,8.10
2018-08-28T09:25:24.723Z,7.90
2018-08-28T09:26:24.764Z,8.20
2018-08-28T09:27:24.806Z,8.30
2018-08-28T09:28:24.846Z,9.00
2018-08-28T09:29:24.889Z,11.90
2018-08-28T09:30:24.930Z,9.10
2018-08-28T09:31:25.040Z,11.60
2018-08-28T09:32:25.119Z,9.20
2018-08-28T09:33:25.056Z,8.30
2018-08-28T09:34:25.096Z,10.10
2018-08-28T09:35:25.140Z,9.50
2018-08-28T09:36:25.188Z,8.50
2018-08-28T09:37:25.227Z,8.40
2018-08-28T09:38:25.294Z,11.30
2018-08-28T09:39:25.314Z,9.60
2018-08-28T09:40:25.358Z,9.60
2018-08-28T09:41:25.406Z,8.70
2018-08-28T09:42:25.447Z,8.60
2018-08-28T09:43:25.491Z,9.10
2018-08-28T09:44:25.538Z,9.60
2018-08-28T09:45:25.583Z,9.50
2018-08-28T09:46:25.628Z,10.20
2018-08-28T09:47:25.675Z,9.40
2018-08-28T09:48:25.795Z,8.10
2018-08-28T09:49:25.769Z,8.60
2018-08-28T09:50:25.990Z,8.50
2018-08-28T09:51:25.861Z,9.90
2018-08-28T09:52:25.909Z,8.80
2018-08-28T09:53:25.955Z,9.70
2018-08-28T09:54:26.003Z,10.00
2018-08-28T09:55:26.054Z,8.40
2018-08-28T09:56:26.123Z,8.50
2018-08-28T09:57:26.147Z,9.40
2018-08-28T09:58:26.195Z,8.30
2018-08-28T09:59:26.243Z,9.00
2018-08-28T10:00:26.292Z,8.70
2018-08-28T10:01:26.341Z,8.30
2018-08-28T10:02:26.388Z,8.50
2018-08-28T10:03:26.437Z,8.70
2018-08-28T10:04:26.493Z,8.70
2018-08-28T10:05:26.540Z,8.80
2018-08-28T10:06:26.584Z,8.30
2018-08-28T10:07:26.633Z,8.50
2018-08-28T10:08:26.683Z,9.80
2018-08-28T10:09:26.736Z,9.00
2018-08-28T10:10:26.780Z,9.10
2018-08-28T10:11:26.842Z,9.40
2018-08-28T10:12:26.881Z,9.60
2018-08-28T10:13:26.932Z,8.50
2018-08-28T10:14:26.979Z,10.30
2018-08-28T10:15:27.033Z,9.00
2018-08-28T10:16:27.080Z,9.50
2018-08-28T10:17:27.253Z,12.90
2018-08-28T10:18:27.179Z,9.70
2018-08-28T10:19:27.230Z,9.30
2018-08-28T10:20:27.280Z,8.30
2018-08-28T10:21:27.332Z,8.70
2018-08-28T10:22:27.381Z,9.90
2018-08-28T10:23:27.432Z,8.30
2018-08-28T10:24:27.484Z,9.30
2018-08-28T10:25:27.534Z,8.20
2018-08-28T10:26:27.584Z,9.70
2018-08-28T10:27:27.637Z,9.10
2018-08-28T10:28:27.686Z,10.00
2018-08-28T10:29:27.736Z,9.20
2018-08-28T10:30:27.877Z,8.40
2018-08-28T10:31:27.837Z,9.50
2018-08-28T10:32:27.890Z,9.20
2018-08-28T10:33:27.942Z,10.10
2018-08-28T10:34:27.991Z,9.60
2018-08-28T10:35:28.042Z,9.40
2018-08-28T10:36:28.096Z,10.00
2018-08-28T10:37:28.146Z,9.70
2018-08-28T10:38:28.199Z,9.60
2018-08-28T10:40:35.878Z,10.30
2018-08-28T10:41:35.930Z,10.20
2018-08-28T10:42:35.980Z,10.20
2018-08-28T10:43:36.032Z,9.20
2018-08-28T10:44:36.088Z,9.70
2018-08-28T10:45:36.161Z,9.80
2018-08-28T10:46:36.791Z,10.50
2018-08-28T10:47:36.237Z,10.40
2018-08-28T10:48:36.289Z,10.40
2018-08-28T10:49:36.342Z,10.40
2018-08-28T10:50:36.393Z,10.00
2018-08-28T10:51:36.442Z,9.70
2018-08-28T10:52:36.495Z,9.60
2018-08-28T10:53:36.547Z,10.50
2018-08-28T10:54:36.599Z,8.50
2018-08-28T10:55:36.650Z,10.10
2018-08-28T10:56:36.701Z,9.50
2018-08-28T10:57:36.755Z,10.50
2018-08-28T10:58:36.863Z,9.20
2018-08-28T10:59:36.860Z,9.10
2018-08-28T11:00:36.914Z,10.30
2018-08-28T11:01:36.963Z,9.60
2018-08-28T11:02:37.016Z,10.20
2018-08-28T11:03:37.068Z,9.30
2018-08-28T11:04:37.172Z,9.00
2018-08-28T11:05:37.172Z,9.20
2018-08-28T11:06:37.226Z,9.10
2018-08-28T11:07:37.279Z,9.30
2018-08-28T11:08:37.374Z,9.70
2018-08-28T11:09:37.386Z,9.50
2018-08-28T11:10:37.437Z,9.30
2018-08-28T11:11:37.494Z,8.80
2018-08-28T11:12:37.544Z,9.50
2018-08-28T11:13:37.597Z,9.10
2018-08-28T11:14:37.649Z,9.00
2018-08-28T11:15:37.701Z,9.30
2018-08-28T11:16:37.754Z,9.10
2018-08-28T11:17:37.808Z,9.50
2018-08-28T11:18:37.861Z,9.50
2018-08-28T11:19:37.914Z,9.20
2018-08-28T11:20:37.971Z,10.10
2018-08-28T11:21:38.021Z,9.30
2018-08-28T11:22:38.074Z,10.00
2018-08-28T11:23:38.144Z,9.80
2018-08-28T11:24:38.181Z,9.70
2018-08-28T11:25:38.236Z,8.40
2018-08-28T11:26:38.288Z,10.00
2018-08-28T11:27:38.340Z,8.90
2018-08-28T11:28:38.392Z,9.20
2018-08-28T11:29:38.448Z,9.30
2018-08-28T11:30:38.499Z,9.40
2018-08-28T11:31:38.551Z,9.40
2018-08-28T11:32:38.606Z,8.40
2018-08-28T11:33:38.657Z,9.40
2018-08-28T11:34:38.711Z,9.60
2018-08-28T11:35:38.788Z,9.30
2018-08-28T11:36:38.817Z,9.10
2018-08-28T11:37:38.869Z,9.60
2018-08-28T11:38:38.924Z,9.20
2018-08-28T11:39:38.975Z,8.80
2018-08-28T11:40:39.029Z,8.70
2018-08-28T11:41:39.082Z,8.60
2018-08-28T11:42:39.136Z,9.60
2018-08-28T11:43:39.190Z,9.60
2018-08-28T11:44:39.257Z,8.70
2018-08-28T11:45:39.295Z,9.80
2018-08-28T11:46:39.347Z,8.50
2018-08-28T11:47:39.399Z,8.20
2018-08-28T11:48:39.453Z,9.70
2018-08-28T11:49:39.507Z,9.50
2018-08-28T11:50:39.560Z,8.70
2018-08-28T11:51:39.613Z,9.10
2018-08-28T11:52:39.720Z,9.70
2018-08-28T11:53:39.725Z,10.10
2018-08-28T11:54:39.773Z,9.30
2018-08-28T11:55:39.825Z,8.60
2018-08-28T11:56:39.878Z,9.70
2018-08-28T11:57:39.931Z,10.10
2018-08-28T11:58:39.985Z,10.30
2018-08-28T11:59:40.037Z,9.80
2018-08-28T12:00:40.091Z,9.90
2018-08-28T12:01:40.145Z,9.50
2018-08-28T12:02:40.198Z,9.10
2018-08-28T12:03:40.251Z,9.10
2018-08-28T12:04:40.304Z,9.40
2018-08-28T12:05:40.359Z,10.10
2018-08-28T12:06:40.440Z,9.70
2018-08-28T12:07:40.540Z,9.70
2018-08-28T12:08:40.519Z,8.90
2018-08-28T12:09:40.571Z,9.30
2018-08-28T12:10:40.626Z,8.90
2018-08-28T12:11:40.681Z,8.80
2018-08-28T12:12:40.732Z,9.10
2018-08-28T12:13:40.787Z,9.00
2018-08-28T12:14:40.841Z,8.80
2018-08-28T12:15:40.893Z,8.50
2018-08-28T12:17:41.006Z,9.50
2018-08-28T12:18:41.077Z,9.30
2018-08-28T12:21:41.443Z,9.60
2018-08-28T12:23:41.323Z,8.90
2018-08-28T12:24:41.705Z,8.40
2018-08-28T12:25:41.436Z,9.40
2018-08-28T12:26:41.518Z,8.10
2018-08-28T12:27:41.539Z,8.30
2018-08-28T12:28:41.593Z,9.00
2018-08-28T12:29:41.688Z,8.70
2018-08-28T12:30:41.701Z,8.20
2018-08-28T12:31:41.770Z,8.70
2018-08-28T12:32:41.809Z,8.40
2018-08-28T12:33:41.862Z,8.50
2018-08-28T12:34:41.920Z,9.20
2018-08-28T12:35:41.969Z,8.70
2018-08-28T12:36:42.070Z,8.30
2018-08-28T12:37:42.080Z,8.80
2018-08-28T12:38:42.134Z,8.60
2018-08-28T12:39:42.187Z,8.30
2018-08-28T12:40:42.242Z,8.10
2018-08-28T12:41:42.296Z,8.10
2018-08-28T12:42:42.351Z,9.00
2018-08-28T12:43:42.404Z,8.60
2018-08-28T12:44:42.471Z,7.90
2018-08-28T12:45:42.513Z,8.30
2018-08-28T12:46:42.568Z,8.10
2018-08-28T12:47:42.622Z,8.20
2018-08-28T12:48:42.679Z,8.30
2018-08-28T12:49:42.732Z,8.30
2018-08-28T12:50:42.786Z,8.50
2018-08-28T12:51:42.839Z,8.50
2018-08-28T12:52:42.895Z,8.50
2018-08-28T12:53:42.952Z,8.30
2018-08-28T12:54:43.079Z,8.50
2018-08-28T12:55:43.057Z,8.30
2018-08-28T12:56:43.111Z,8.40
2018-08-28T12:57:43.167Z,8.10
2018-08-28T12:58:43.222Z,8.10
2018-08-28T12:59:43.274Z,8.70
2018-08-28T13:00:43.493Z,9.60
2018-08-28T13:01:43.386Z,8.20
2018-08-28T13:02:43.441Z,8.50
2018-08-28T13:03:43.493Z,7.80
2018-08-28T13:04:43.551Z,7.90
2018-08-28T13:05:43.602Z,8.30
2018-08-28T13:06:43.656Z,8.40
2018-08-28T13:07:43.710Z,8.10
2018-08-28T13:08:43.764Z,7.90
2018-08-28T13:09:43.819Z,8.30
2018-08-28T13:10:43.874Z,8.80
2018-08-28T13:11:43.926Z,8.10
2018-08-28T13:12:43.982Z,8.10
2018-08-28T13:13:44.036Z,9.00
2018-08-28T13:14:44.303Z,8.40
2018-08-28T13:15:44.144Z,9.00
2018-08-28T13:16:44.197Z,9.00
2018-08-28T13:17:44.254Z,8.30
2018-08-28T13:18:44.307Z,8.10
2018-08-28T13:19:44.360Z,8.30
2018-08-28T13:20:44.419Z,9.10
2018-08-28T13:21:44.469Z,8.20
2018-08-28T13:22:44.527Z,9.60